• Join FlightAware (Why Join?)
  • Login
  • US Flag 
Rudolph Flight #1: Arrived! 
07:01PM EST


 

Airport Tracker/Info


-or-


 

Live Flight TrackerFlight Track Log ✈ EVA189 ✈ 22-Mar-2014 ✈ RJTT / HND - RCSS / TSA

Flight Track Log - Related Links

Times and Time Zones

All times are in EDT time to prevent confusion due to time zone crossing. See the EVA189 flight status page for this flight to view local times or setup timezone preferences in your user account.

Time Position Orientation Groundspeed Altitude Reporting Facility
EDT Latitude Longitude Course Direction KTS MPH feet Rate Location/Type
10:03PM 35.5432 139.8253 48° Northeast 147 169 600  Level FlightAware ADS-B
10:04PM 35.5472 139.8491 112° Southeast 157 181 1,900 1,680 Climbing FlightAware ADS-B (EGKA / ESH)
10:05PM 35.5375 139.8740 116° Southeast 161 185 2,900 1,980 Climbing FlightAware ADS-B (RJTF)
10:05PM 35.5472 139.8491 112° Southeast 157 181 2,900 1,620 Level FlightAware ADS-B (EGKA / ESH)
10:05PM 35.5335 139.8834 121° Southeast 164 189 3,200 2,280 Climbing FlightAware ADS-B (RJTF)
10:05PM 35.5309 139.8870 133° Southeast 167 192 3,400 1,320 Climbing FlightAware ADS-B (RJTF)
10:05PM 35.5275 139.8898 147° Southeast 171 197 3,400 600 Level FlightAware ADS-B (RJTF)
10:05PM 35.5237 139.8916 162° South 175 201 3,500 1,200 Climbing FlightAware ADS-B (RJTF)
10:05PM 35.5202 139.8921 176° South 178 205 3,600 1,200 Climbing FlightAware ADS-B (RJTF)
10:05PM 35.5157 139.8917 188° South 183 211 3,700 600 Climbing FlightAware ADS-B (RJTF)
10:05PM 35.5108 139.8904 194° South 189 217 3,700 480 Level FlightAware ADS-B (RJTF)
10:06PM 35.5472 139.8491 196° South 195 224 3,800 1,200 Climbing FlightAware ADS-B (EGKA / ESH)
10:06PM 35.4981 139.8853 201° Southwest 213 245 4,000 1,260 Climbing FlightAware ADS-B (RJTF)
10:06PM 35.4842 139.8775 209° Southwest 236 272 4,300 2,400 Climbing FlightAware ADS-B (RJTF)
10:06PM 35.4696 139.8662 213° Southwest 242 278 5,200 3,120 Climbing FlightAware ADS-B (RJTF)
10:06PM 35.5472 139.8491 211° Southwest 240 276 5,400 3,720 Climbing FlightAware ADS-B (EGKA / ESH)
10:07PM 35.4542 139.8543 213° Southwest 241 277 6,200 3,720 Climbing FlightAware ADS-B (RJTF)
10:07PM 35.5472 139.8491 213° Southwest 242 278 6,400 3,420 Climbing FlightAware ADS-B (EGKA / ESH)
10:07PM 35.4409 139.8439 213° Southwest 247 284 7,000 3,180 Climbing FlightAware ADS-B (RJTF)
10:07PM 35.5472 139.8491 213° Southwest 242 278 7,200 3,180 Climbing FlightAware ADS-B (EGKA / ESH)
10:07PM 35.4269 139.8331 213° Southwest 248 285 7,800 3,120 Climbing FlightAware ADS-B (RJTF)
10:07PM 35.4112 139.8211 213° Southwest 261 300 8,400 1,980 Climbing FlightAware ADS-B (RJTF)
10:07PM 35.4188 139.8269 212° Southwest 261 300 8,500 2,400 Climbing FlightAware ADS-B (EGKA / ESH)
10:07PM 35.3979 139.8107 213° Southwest 274 315 9,000 3,180 Climbing FlightAware ADS-B (RJTF)
10:08PM 35.3915 139.8060 212° Southwest 274 315 9,300 3,180 Climbing FlightAware ADS-B (EGKA / ESH)
10:08PM 35.3806 139.7976 212° Southwest 281 323 9,800 2,880 Climbing FlightAware ADS-B (RJTF)
10:08PM 35.3708 139.7903 212° Southwest 281 323 10,800 2,400 Climbing FlightAware ADS-B (EGKA / ESH)
10:08PM 35.3454 139.7709 212° Southwest 297 342 11,000 1,680 Climbing FlightAware ADS-B (RJTF)
10:09PM 35.3087 139.7404 221° Southwest 332 382 11,900 1,920 Climbing FlightAware ADS-B (RJTF)
10:09PM 35.2868 139.7120 228° Southwest 343 395 12,700 2,460 Climbing FlightAware ADS-B (EGKA / ESH)
10:09PM 35.2759 139.6974 228° Southwest 348 400 13,200 3,180 Climbing FlightAware ADS-B (RJTF)
10:10PM 35.2645 139.6824 227° Southwest 352 405 14,300 3,300 Climbing FlightAware ADS-B (EGKA / ESH)
10:10PM 35.2451 139.6567 228° Southwest 353 406 14,800 3,180 Climbing FlightAware ADS-B (RJTF)
10:10PM 35.2038 139.6023 227° Southwest 359 413 16,700 3,000 Climbing FlightAware ADS-B (EGKA / ESH)
10:11PM 35.1913 139.5864 228° Southwest 362 417 17,300 3,000 Climbing FlightAware ADS-B (RJTF)
10:11PM 35.1682 139.5555 227° Southwest 362 417 18,200 2,820 Climbing FlightAware ADS-B (EGKA / ESH)
10:11PM 35.1455 139.5120 254° West 353 406 19,500 2,460 Climbing FlightAware ADS-B (EGKA / ESH)
10:12PM 35.1373 139.4480 263° West 359 413 20,700 2,460 Climbing FlightAware ADS-B (EGKA / ESH)
10:13PM 35.1269 139.3564 262° West 364 419 22,600 2,460 Climbing FlightAware ADS-B (EGKA / ESH)
10:13PM 35.1196 139.2926 262° West 368 423 23,800 2,640 Climbing FlightAware ADS-B (EGKA / ESH)
10:14PM 35.1016 139.1342 262° West 376 433 26,500 1,920 Climbing FlightAware ADS-B
10:15PM 35.1010 139.1298 262° West 377 434 26,700 1,620 Climbing FlightAware ADS-B (EGKA / ESH)
10:16PM 35.0757 138.9099 262° West 388 447 29,400 2,040 Climbing FlightAware ADS-B
10:16PM 35.0653 138.8207 263° West 387 445 30,600 1,440 Climbing FlightAware ADS-B
10:17PM 35.0561 138.7429 263° West 393 452 31,300 1,080 Climbing FlightAware ADS-B
10:18PM 35.0425 138.6525 259° West 400 460 32,000 1,320 Climbing FlightAware ADS-B
10:18PM 35.0274 138.5589 260° West 392 451 33,200 2,640 Climbing FlightAware ADS-B
10:19PM 35.0145 138.4770 259° West 351 404 35,700 1,800 Climbing FlightAware ADS-B
10:20PM 34.9961 138.3597 259° West 362 417 36,200 360 Climbing FlightAware ADS-B
10:21PM 34.9835 138.2793 259° West 371 427 36,300 360 Climbing FlightAware ADS-B
10:21PM 34.9710 138.2005 260° West 373 429 36,700 660 Climbing FlightAware ADS-B
10:22PM 34.9569 138.1131 260° West 374 430 37,200 780 Climbing FlightAware ADS-B
10:23PM 34.9446 138.0354 259° West 371 427 37,800 1,020 Climbing FlightAware ADS-B
10:23PM 34.9316 137.9540 259° West 363 418 38,600 1,020 Climbing FlightAware ADS-B
10:24PM 34.9183 137.8715 259° West 358 412 39,200 780 Climbing FlightAware ADS-B
10:25PM 34.9084 137.8102 259° West 359 413 39,600 540 Climbing FlightAware ADS-B
10:25PM 34.8937 137.7200 260° West 363 418 39,900 240 Climbing FlightAware ADS-B
10:26PM 34.8799 137.6353 260° West 368 423 40,000 60 Climbing FlightAware ADS-B
10:27PM 34.8660 137.5559 255° West 375 432 40,000  Level FlightAware ADS-B
10:28PM 34.8233 137.4327 241° Southwest 379 436 40,000  Level FlightAware ADS-B
10:29PM 34.7616 137.3287 234° Southwest 381 438 40,000  Level FlightAware ADS-B
10:29PM 34.7173 137.2571 234° Southwest 383 441 40,000  Level FlightAware ADS-B
10:30PM 34.6752 137.1902 234° Southwest 384 442 40,000  Level FlightAware ADS-B
10:31PM 34.6326 137.1229 234° Southwest 383 441 40,000  Level FlightAware ADS-B
10:31PM 34.5882 137.0526 234° Southwest 380 437 40,000  Level FlightAware ADS-B
10:32PM 34.5442 136.9832 234° Southwest 378 435 40,000  Level FlightAware ADS-B
10:33PM 34.5012 136.9152 233° Southwest 376 433 40,000  Level FlightAware ADS-B
10:33PM 34.4674 136.8623 233° Southwest 374 430 40,000  Level FlightAware ADS-B
10:34PM 34.4258 136.7972 233° Southwest 378 435 40,000  Level FlightAware ADS-B
10:36PM 34.3139 136.6221 232° Southwest 371 427 40,000  Level FlightAware ADS-B
10:36PM 34.2685 136.5511 232° Southwest 371 427 40,000  Level FlightAware ADS-B
10:37PM 34.2046 136.4517 232° Southwest 367 422 40,000  Level FlightAware ADS-B
10:38PM 34.1681 136.3952 232° Southwest 365 420 40,000  Level FlightAware ADS-B
10:39PM 34.0864 136.2684 232° Southwest 369 425 40,000  Level FlightAware ADS-B
10:40PM 34.0518 136.2149 232° Southwest 369 425 40,000  Level FlightAware ADS-B
10:41PM 33.9993 136.1342 232° Southwest 368 423 40,000  Level FlightAware ADS-B
10:43PM 33.9133 135.9643 239° Southwest  Level Estimated
10:44PM 33.8636 135.8665 239° Southwest  Level Estimated
10:45PM 33.8138 135.7688 239° Southwest  Level Estimated
10:46PM 33.7640 135.6712 238° Southwest  Level Estimated
10:47PM 33.7140 135.5737 238° Southwest  Level Estimated
10:48PM 33.6640 135.4763 238° Southwest  Level Estimated
10:49PM 33.6139 135.3790 238° Southwest  Level Estimated
10:50PM 33.5638 135.2819 238° Southwest  Level Estimated
10:51PM 33.5135 135.1848 238° Southwest  Level Estimated
10:52PM 33.4632 135.0879 238° Southwest  Level Estimated
10:53PM 33.4128 134.9911 238° Southwest  Level Estimated
10:54PM 33.3624 134.8944 238° Southwest  Level Estimated
10:55PM 33.3118 134.7978 238° Southwest  Level Estimated
10:56PM 33.2612 134.7013 238° Southwest  Level Estimated
10:57PM 33.2105 134.6050 238° Southwest  Level Estimated
10:58PM 33.1598 134.5087 238° Southwest  Level Estimated
10:59PM 33.1089 134.4126 238° Southwest  Level Estimated
11:00PM 33.0580 134.3165 238° Southwest  Level Estimated
11:01PM 33.0070 134.2206 238° Southwest  Level Estimated
11:02PM 32.9560 134.1248 238° Southwest  Level Estimated
11:03PM 32.9048 134.0291 238° Southwest  Level Estimated
11:04PM 32.8536 133.9335 237° Southwest  Level Estimated
11:05PM 32.8023 133.8381 237° Southwest  Level Estimated
11:06PM 32.7510 133.7427 237° Southwest  Level Estimated
11:07PM 32.6996 133.6474 237° Southwest  Level Estimated
11:08PM 32.6481 133.5523 237° Southwest  Level Estimated
11:09PM 32.5965 133.4572 237° Southwest  Level Estimated
11:10PM 32.5449 133.3623 237° Southwest  Level Estimated
11:11PM 32.4932 133.2675 237° Southwest  Level Estimated
11:12PM 32.4414 133.1728 237° Southwest  Level Estimated
11:13PM 32.3895 133.0782 237° Southwest  Level Estimated
11:14PM 32.3376 132.9837 237° Southwest  Level Estimated
11:15PM 32.2856 132.8893 237° Southwest  Level Estimated
11:16PM 32.2336 132.7950 237° Southwest  Level Estimated
11:17PM 32.1814 132.7009 237° Southwest  Level Estimated
11:18PM 32.1292 132.6068 237° Southwest  Level Estimated
11:19PM 32.0770 132.5129 237° Southwest  Level Estimated
11:20PM 32.0246 132.4190 237° Southwest  Level Estimated
11:21PM 31.9722 132.3253 237° Southwest  Level Estimated
11:22PM 31.9197 132.2316 237° Southwest  Level Estimated
11:23PM 31.8672 132.1381 237° Southwest  Level Estimated
11:24PM 31.8146 132.0447 236° Southwest  Level Estimated
11:25PM 31.7619 131.9514 236° Southwest  Level Estimated
11:26PM 31.7092 131.8582 236° Southwest  Level Estimated
11:27PM 31.6563 131.7651 236° Southwest  Level Estimated
11:28PM 31.6035 131.6721 236° Southwest  Level Estimated
11:29PM 31.5505 131.5792 236° Southwest  Level Estimated
11:30PM 31.4975 131.4864 236° Southwest  Level Estimated
11:31PM 31.4444 131.3938 236° Southwest  Level Estimated
11:32PM 31.3912 131.3012 236° Southwest  Level Estimated
11:33PM 31.3380 131.2087 236° Southwest  Level Estimated
11:34PM 31.2847 131.1163 236° Southwest  Level Estimated
11:35PM 31.2314 131.0241 236° Southwest  Level Estimated
11:36PM 31.1780 130.9319 236° Southwest  Level Estimated
11:37PM 31.1245 130.8399 236° Southwest  Level Estimated
11:38PM 31.0709 130.7480 236° Southwest  Level Estimated
11:39PM 31.0173 130.6561 236° Southwest  Level Estimated
11:40PM 30.9636 130.5644 236° Southwest  Level Estimated
11:41PM 30.9099 130.4727 236° Southwest  Level Estimated
11:42PM 30.8561 130.3812 236° Southwest  Level Estimated
11:43PM 30.8022 130.2898 236° Southwest  Level Estimated
11:44PM 30.7483 130.1984 236° Southwest  Level Estimated
11:45PM 30.6943 130.1072 235° Southwest  Level Estimated
11:46PM 30.6402 130.0161 235° Southwest  Level Estimated
11:47PM 30.5861 129.9251 235° Southwest  Level Estimated
11:48PM 30.5319 129.8342 235° Southwest  Level Estimated
11:49PM 30.4776 129.7433 235° Southwest  Level Estimated
11:50PM 30.4233 129.6526 235° Southwest  Level Estimated
11:51PM 30.3689 129.5620 235° Southwest  Level Estimated
11:52PM 30.3145 129.4715 235° Southwest  Level Estimated
11:53PM 30.2600 129.3811 235° Southwest  Level Estimated
11:54PM 30.2054 129.2908 235° Southwest  Level Estimated
11:55PM 30.1508 129.2005 235° Southwest  Level Estimated
11:56PM 30.0961 129.1104 235° Southwest  Level Estimated
11:57PM 30.0414 129.0204 235° Southwest  Level Estimated
11:58PM 29.9866 128.9305 235° Southwest  Level Estimated
11:59PM 29.9317 128.8407 235° Southwest  Level Estimated
12:00AM 29.8768 128.7510 235° Southwest  Level Estimated
12:01AM 29.8218 128.6613 235° Southwest  Level Estimated
12:02AM 29.7667 128.5718 235° Southwest  Level Estimated
12:03AM 29.7116 128.4824 235° Southwest  Level Estimated
12:04AM 29.6564 128.3931 235° Southwest  Level Estimated
12:05AM 29.6012 128.3039 235° Southwest  Level Estimated
12:06AM 29.5459 128.2147 235° Southwest  Level Estimated
12:07AM 29.4905 128.1257 234° Southwest  Level Estimated
12:08AM 29.4351 128.0368 234° Southwest  Level Estimated
12:09AM 29.3796 127.9480 234° Southwest  Level Estimated
12:10AM 29.3241 127.8592 234° Southwest  Level Estimated
12:11AM 29.2685 127.7706 234° Southwest  Level Estimated
12:12AM 29.2129 127.6820 234° Southwest  Level Estimated
12:13AM 29.1572 127.5936 234° Southwest  Level Estimated
12:14AM 29.1014 127.5052 234° Southwest  Level Estimated
12:15AM 29.0456 127.4170 234° Southwest  Level Estimated
12:16AM 28.9897 127.3288 234° Southwest  Level Estimated
12:17AM 28.9338 127.2407 234° Southwest  Level Estimated
12:18AM 28.8778 127.1528 234° Southwest  Level Estimated
12:19AM 28.8217 127.0649 234° Southwest  Level Estimated
12:20AM 28.7656 126.9771 234° Southwest  Level Estimated
12:21AM 28.7094 126.8894 234° Southwest  Level Estimated
12:22AM 28.6532 126.8018 234° Southwest  Level Estimated
12:23AM 28.5970 126.7143 234° Southwest  Level Estimated
12:24AM 28.5406 126.6269 234° Southwest  Level Estimated
12:25AM 28.4842 126.5396 234° Southwest  Level Estimated
12:26AM 28.4278 126.4524 234° Southwest  Level Estimated
12:27AM 28.3713 126.3653 234° Southwest  Level Estimated
12:28AM 28.3147 126.2782 234° Southwest  Level Estimated
12:29AM 28.2581 126.1913 234° Southwest  Level Estimated
12:30AM 28.2014 126.1044 233° Southwest  Level Estimated
12:31AM 28.1447 126.0177 233° Southwest  Level Estimated
12:32AM 28.0879 125.9310 233° Southwest  Level Estimated
12:33AM 28.0311 125.8445 233° Southwest  Level Estimated
12:34AM 27.9742 125.7580 233° Southwest  Level Estimated
12:35AM 27.9173 125.6716 233° Southwest  Level Estimated
12:36AM 27.8603 125.5853 233° Southwest  Level Estimated
12:37AM 27.8032 125.4991 233° Southwest  Level Estimated
12:38AM 27.7462 125.4129 233° Southwest  Level Estimated
12:39AM 27.6890 125.3269 233° Southwest  Level Estimated
12:40AM 27.6318 125.2410 233° Southwest  Level Estimated
12:41AM 27.5745 125.1551 233° Southwest  Level Estimated
12:42AM 27.5172 125.0694 233° Southwest  Level Estimated
12:43AM 27.4599 124.9837 233° Southwest  Level Estimated
12:44AM 27.4025 124.8981 233° Southwest  Level Estimated
12:45AM 27.3450 124.8126 233° Southwest  Level Estimated
12:46AM 27.2875 124.7272 233° Southwest  Level Estimated
12:47AM 27.2299 124.6419 233° Southwest  Level Estimated
12:48AM 27.1723 124.5567 233° Southwest  Level Estimated
12:49AM 27.1146 124.4716 233° Southwest  Level Estimated
12:50AM 27.0569 124.3865 233° Southwest  Level Estimated
12:51AM 26.9991 124.3016 233° Southwest  Level Estimated
12:52AM 26.9412 124.2167 233° Southwest  Level Estimated
12:53AM 26.8834 124.1319 233° Southwest  Level Estimated
12:54AM 26.8255 124.0472 233° Southwest  Level Estimated
12:55AM 26.7675 123.9626 233° Southwest  Level Estimated
12:56AM 26.7094 123.8781 232° Southwest  Level Estimated
12:57AM 26.6514 123.7936 232° Southwest  Level Estimated
12:58AM 26.5932 123.7093 232° Southwest  Level Estimated
12:59AM 26.5350 123.6250 232° Southwest  Level Estimated
01:00AM 26.4768 123.5408 232° Southwest  Level Estimated
01:01AM 26.4185 123.4567 232° Southwest  Level Estimated
01:02AM 26.3602 123.3727 232° Southwest  Level Estimated
01:03AM 26.3018 123.2887 232° Southwest  Level Estimated
01:04AM 26.2434 123.2049 232° Southwest  Level Estimated
01:05AM 26.1849 123.1211 232° Southwest  Level Estimated
01:06AM 26.1264 123.0375 232° Southwest  Level Estimated
01:07AM 26.0678 122.9539 232° Southwest  Level Estimated
01:08AM 26.0092 122.8704 232° Southwest  Level Estimated
01:09AM 25.9506 122.7869 232° Southwest  Level Estimated
01:10AM 25.8918 122.7036 232° Southwest  Level Estimated
01:11AM 25.8331 122.6203 232° Southwest  Level Estimated
01:12AM 25.7743 122.5372 232° Southwest  Level Estimated
01:13AM 25.7154 122.4541 232° Southwest  Level Estimated
01:14AM 25.6565 122.3711 232° Southwest  Level Estimated
01:15AM 25.5976 122.2881 232° Southwest  Level Estimated
01:16AM 25.5386 122.2053 232° Southwest  Level Estimated
01:17AM 25.4795 122.1225 232° Southwest  Level Estimated
01:18AM 25.4204 122.0398 232° Southwest  Level Estimated
01:19AM 25.3613 121.9572 232° Southwest  Level Estimated
01:20AM 25.3021 121.8747 232° Southwest  Level Estimated
01:21AM 25.2429 121.7923 232° Southwest  Level Estimated
01:22AM 25.1836 121.7099 232° Southwest  Level Estimated
01:23AM 25.1243 121.6276 231° Southwest  Level Estimated
01:24AM 25.0694 121.5517 231° Southwest  Level Estimated
01:25AM 25.0694 121.5517 North  Level Estimated
01:26AM 25.0694 121.5517 North  Level Estimated
01:27AM 25.0694 121.5517 North  Level Estimated
01:28AM 25.0694 121.5517 North  Level Estimated
01:29AM 25.0694 121.5517 North  Level Estimated
01:30AM 25.0694 121.5517 North  Level Estimated
01:31AM 25.0694 121.5517 North  Level Estimated
01:32AM 25.0694 121.5517 North  Level Estimated
01:33AM 25.0694 121.5517 North  Level Estimated
01:34AM 25.0694 121.5517 North  Level Estimated
01:35AM 25.0694 121.5517 North  Level Estimated